Time;durP1;ratioP1;P1;durP2;ratioP2;P2;SDS_P1;SDS_P2;PMS_P1;PMS_P2;Temp;Humidity;BMP_temperature;BMP_pressure;BME280_temperature;BME280_humidity;BME280_pressure;Samples;Min_cycle;Max_cycle;Signal;HPM_P1;HPM_P2
2021/01/12 00:00:37;;;;;;;42.57;17.20;;;-1.40;99.90;;;;;;5074468;28;20036;-68
2021/01/12 00:03:04;;;;;;;52.27;20.50;;;-1.50;99.90;;;;;;5068602;28;20049;-68
2021/01/12 00:05:50;;;;;;;47.53;18.93;;;-1.70;99.90;;;;;;5068500;28;20073;-68
2021/01/12 00:08:18;;;;;;;46.33;19.55;;;-1.80;99.90;;;;;;5068981;28;20056;-72
2021/01/12 00:10:44;;;;;;;46.40;16.90;;;-1.80;99.90;;;;;;5064109;28;20045;-73
2021/01/12 00:13:14;;;;;;;45.87;19.53;;;-1.80;99.90;;;;;;5059163;28;20053;-67
2021/01/12 00:15:41;;;;;;;50.90;20.60;;;-1.80;99.90;;;;;;5074472;28;20049;-66
2021/01/12 00:18:07;;;;;;;48.10;19.63;;;-1.80;99.90;;;;;;5073836;28;20061;-66
2021/01/12 00:20:35;;;;;;;54.67;21.43;;;-1.70;99.90;;;;;;5073380;28;20052;-68
2021/01/12 00:23:02;;;;;;;53.57;20.13;;;-1.70;99.90;;;;;;5066236;28;20119;-70
2021/01/12 00:25:29;;;;;;;51.90;21.37;;;-1.60;99.90;;;;;;5072016;28;20062;-69
2021/01/12 00:27:56;;;;;;;52.63;20.07;;;-1.50;99.90;;;;;;5074539;28;20052;-66
2021/01/12 00:30:23;;;;;;;56.97;21.63;;;-1.50;99.90;;;;;;5080411;28;20094;-67
2021/01/12 00:32:50;;;;;;;51.17;20.63;;;-1.50;99.90;;;;;;5078605;28;20100;-66
2021/01/12 00:35:16;;;;;;;51.13;21.13;;;-1.50;99.90;;;;;;5059666;28;20630;-66
2021/01/12 00:37:44;;;;;;;48.73;20.20;;;-1.30;99.90;;;;;;5056835;28;20059;-67
2021/01/12 00:40:12;;;;;;;43.00;16.20;;;-1.20;99.90;;;;;;5058167;28;20052;-67
2021/01/12 00:42:38;;;;;;;43.17;16.77;;;-1.20;99.90;;;;;;5079349;28;20516;-66
2021/01/12 00:45:06;;;;;;;37.37;15.67;;;-1.30;99.90;;;;;;5064993;28;20040;-66
2021/01/12 00:47:32;;;;;;;42.20;16.83;;;-1.30;99.90;;;;;;5067457;28;20049;-67
2021/01/12 00:49:59;;;;;;;53.27;17.87;;;-1.10;99.90;;;;;;5080132;28;20557;-66
2021/01/12 00:52:26;;;;;;;44.17;17.93;;;-1.20;99.90;;;;;;5092901;28;20101;-66
2021/01/12 00:54:53;;;;;;;42.70;18.60;;;-1.20;99.90;;;;;;5074560;28;20076;-66
2021/01/12 00:57:19;;;;;;;49.20;19.80;;;-1.10;99.90;;;;;;5077767;28;20070;-66
2021/01/12 00:59:46;;;;;;;44.03;18.57;;;-1.00;99.90;;;;;;5077440;28;20101;-66
2021/01/12 01:02:13;;;;;;;48.73;18.93;;;-1.00;99.90;;;;;;5075246;28;20057;-66
2021/01/12 01:04:40;;;;;;;43.13;18.03;;;-1.00;99.90;;;;;;5085356;28;20071;-66
2021/01/12 01:07:06;;;;;;;43.50;19.00;;;-1.00;99.90;;;;;;5074688;28;20055;-66
2021/01/12 01:09:33;;;;;;;47.97;19.37;;;-1.10;99.90;;;;;;5081323;28;20056;-66
2021/01/12 01:12:00;;;;;;;48.47;19.07;;;-1.10;99.90;;;;;;5080246;28;20045;-66
2021/01/12 01:14:27;;;;;;;45.93;18.53;;;-1.10;99.90;;;;;;5074726;28;20454;-66
2021/01/12 01:16:53;;;;;;;44.87;19.10;;;-1.10;99.90;;;;;;5085304;28;20113;-66
2021/01/12 01:19:20;;;;;;;48.07;18.63;;;-1.00;99.90;;;;;;5085083;28;20040;-69
2021/01/12 01:21:47;;;;;;;45.83;17.90;;;-0.80;99.90;;;;;;5083980;28;20044;-66
2021/01/12 01:24:14;;;;;;;51.97;20.03;;;-0.80;99.90;;;;;;5086686;28;20052;-66
2021/01/12 01:26:41;;;;;;;40.93;16.70;;;-0.70;99.90;;;;;;5072668;28;20041;-66
2021/01/12 01:29:08;;;;;;;44.13;17.50;;;-0.70;99.90;;;;;;5063655;28;20459;-66
2021/01/12 01:31:36;;;;;;;43.50;16.80;;;-0.70;99.90;;;;;;5073445;28;20092;-66
2021/01/12 01:34:03;;;;;;;34.83;15.23;;;-0.60;99.90;;;;;;5075455;28;20048;-66
2021/01/12 01:36:29;;;;;;;41.50;16.50;;;-0.70;99.90;;;;;;5085067;28;20059;-66
2021/01/12 01:38:56;;;;;;;39.77;15.40;;;-0.70;99.90;;;;;;5084165;28;20695;-66
2021/01/12 01:41:22;;;;;;;38.10;16.33;;;-0.70;99.90;;;;;;5082763;28;20056;-66
2021/01/12 01:43:49;;;;;;;40.27;17.33;;;-0.70;99.90;;;;;;5084555;28;20044;-66
2021/01/12 01:46:17;;;;;;;35.60;14.87;;;-0.60;99.90;;;;;;5084056;28;20044;-66
2021/01/12 01:48:43;;;;;;;35.40;15.27;;;-0.50;99.90;;;;;;5084314;28;20043;-66
2021/01/12 01:51:10;;;;;;;40.23;17.20;;;-0.50;99.90;;;;;;5083434;28;20454;-66
2021/01/12 01:53:37;;;;;;;37.80;17.30;;;-0.50;99.90;;;;;;5084049;28;20056;-65
2021/01/12 01:56:05;;;;;;;38.77;17.13;;;-0.40;99.90;;;;;;5076817;28;20047;-66
2021/01/12 01:58:32;;;;;;;35.40;15.37;;;-0.40;99.90;;;;;;5064565;28;20079;-66
2021/01/12 02:00:58;;;;;;;35.93;16.67;;;-0.40;99.90;;;;;;5067352;28;20047;-66
2021/01/12 02:03:30;;;;;;;33.10;14.90;;;-0.30;99.90;;;;;;5074365;28;20056;-66
2021/01/12 02:06:07;;;;;;;34.83;16.03;;;-0.30;99.90;;;;;;5072084;28;20045;-66
2021/01/12 02:08:45;;;;;;;35.07;15.47;;;-0.10;99.90;;;;;;5073233;28;20049;-66
2021/01/12 02:11:14;;;;;;;34.17;14.87;;;-0.20;99.90;;;;;;5072870;28;20059;-66
2021/01/12 02:13:42;;;;;;;32.00;14.20;;;-0.30;99.90;;;;;;5075045;28;20097;-66
2021/01/12 02:16:11;;;;;;;34.77;16.17;;;-0.30;99.90;;;;;;5075628;28;20105;-66
2021/01/12 02:18:40;;;;;;;38.87;15.43;;;-0.20;99.90;;;;;;5075087;28;20044;-66
2021/01/12 02:21:07;;;;;;;34.27;15.90;;;-0.20;99.90;;;;;;5072835;28;20044;-66
2021/01/12 02:23:46;;;;;;;34.13;15.20;;;-0.20;99.90;;;;;;5075518;28;20056;-66
2021/01/12 02:26:12;;;;;;;37.70;16.97;;;-0.20;99.90;;;;;;5072676;28;20401;-65
2021/01/12 02:28:39;;;;;;;33.23;13.83;;;-0.20;99.90;;;;;;5070223;28;20147;-66
2021/01/12 02:31:05;;;;;;;34.33;14.83;;;-0.20;99.90;;;;;;5075476;28;20900;-66
2021/01/12 02:33:38;;;;;;;37.30;16.60;;;-0.20;99.90;;;;;;5074338;28;20493;-65
2021/01/12 02:36:06;;;;;;;38.43;16.77;;;-0.20;99.90;;;;;;5072290;28;20528;-66
2021/01/12 02:38:35;;;;;;;35.57;15.87;;;-0.10;99.90;;;;;;5074079;28;20056;-66
2021/01/12 02:41:13;;;;;;;36.07;14.37;;;-0.10;99.90;;;;;;5071525;28;20166;-65
2021/01/12 02:43:41;;;;;;;33.40;14.73;;;-0.10;99.90;;;;;;5072800;28;20044;-65
2021/01/12 02:46:08;;;;;;;39.10;17.47;;;-0.10;99.90;;;;;;5064353;28;20048;-65
2021/01/12 02:48:34;;;;;;;34.87;15.87;;;-0.10;99.90;;;;;;5063227;28;20421;-65
2021/01/12 02:51:01;;;;;;;33.53;15.13;;;0.00;99.90;;;;;;5063528;28;20505;-65
2021/01/12 02:53:27;;;;;;;36.60;17.23;;;-0.10;99.90;;;;;;5062897;28;20052;-65
2021/01/12 02:55:54;;;;;;;37.73;15.93;;;-0.10;99.90;;;;;;5063837;28;20057;-64
2021/01/12 02:58:21;;;;;;;37.73;15.20;;;0.00;99.90;;;;;;5063773;28;20114;-65
2021/01/12 03:00:48;;;;;;;36.83;15.13;;;0.00;99.90;;;;;;5063303;28;20040;-65
2021/01/12 03:03:14;;;;;;;34.13;15.53;;;0.00;99.90;;;;;;5063765;28;20048;-64
2021/01/12 03:05:41;;;;;;;34.27;15.23;;;0.10;99.90;;;;;;5063114;28;20052;-65
2021/01/12 03:08:07;;;;;;;36.53;16.17;;;0.00;99.90;;;;;;5063490;28;20040;-65
2021/01/12 03:10:34;;;;;;;40.20;16.00;;;0.00;99.90;;;;;;5068337;28;20496;-66
2021/01/12 03:13:01;;;;;;;40.63;16.93;;;0.00;99.90;;;;;;5072556;28;20075;-66
2021/01/12 03:15:28;;;;;;;39.53;17.37;;;0.10;99.90;;;;;;5074504;28;20504;-65
2021/01/12 03:17:55;;;;;;;37.30;16.30;;;0.10;99.90;;;;;;5073806;28;20044;-66
2021/01/12 03:20:21;;;;;;;36.20;16.33;;;0.20;99.90;;;;;;5073219;28;20075;-65
2021/01/12 03:22:48;;;;;;;38.53;16.43;;;0.10;99.90;;;;;;5073005;28;20086;-65
2021/01/12 03:25:14;;;;;;;36.27;16.97;;;0.20;99.90;;;;;;5072483;28;20044;-65
2021/01/12 03:27:41;;;;;;;37.83;16.57;;;0.10;99.90;;;;;;5067766;28;20056;-65
2021/01/12 03:30:08;;;;;;;36.90;16.70;;;0.10;99.90;;;;;;5074962;28;20052;-65
2021/01/12 03:32:36;;;;;;;41.50;18.30;;;0.20;99.90;;;;;;5073552;28;20055;-65
2021/01/12 03:35:03;;;;;;;34.43;15.97;;;0.20;99.90;;;;;;5072183;28;20307;-65
2021/01/12 03:37:30;;;;;;;33.87;13.50;;;0.20;99.90;;;;;;5074041;28;20040;-65
2021/01/12 03:39:56;;;;;;;37.23;15.67;;;0.20;99.90;;;;;;5072881;28;20048;-66
2021/01/12 03:42:23;;;;;;;31.70;13.63;;;0.30;99.90;;;;;;5072325;28;20044;-65
2021/01/12 03:44:49;;;;;;;35.63;15.27;;;0.30;99.90;;;;;;5074708;28;20069;-65
2021/01/12 03:47:16;;;;;;;38.27;16.13;;;0.40;99.90;;;;;;5073714;28;20505;-65
2021/01/12 03:49:43;;;;;;;35.47;15.37;;;0.30;99.90;;;;;;5071824;28;20041;-65
2021/01/12 03:52:10;;;;;;;33.33;14.93;;;0.40;99.90;;;;;;5072943;28;20340;-65
2021/01/12 03:54:36;;;;;;;32.33;15.03;;;0.40;99.90;;;;;;5071957;28;20508;-65
2021/01/12 03:57:03;;;;;;;31.27;13.10;;;0.50;99.90;;;;;;5069734;28;20057;-66
2021/01/12 03:59:29;;;;;;;31.83;13.00;;;0.50;99.90;;;;;;5071585;28;20053;-65
2021/01/12 04:01:56;;;;;;;27.87;13.57;;;0.60;99.90;;;;;;5072934;28;20412;-65
2021/01/12 04:04:22;;;;;;;31.53;14.10;;;0.60;99.90;;;;;;5074752;28;20049;-66
2021/01/12 04:06:50;;;;;;;31.07;14.80;;;0.70;99.90;;;;;;5077625;28;20048;-66
2021/01/12 04:09:16;;;;;;;29.43;13.80;;;0.60;99.90;;;;;;5076564;28;20051;-66
2021/01/12 04:11:44;;;;;;;27.17;12.10;;;0.70;99.90;;;;;;5082999;28;20056;-65
2021/01/12 04:14:11;;;;;;;29.53;12.97;;;0.80;99.90;;;;;;5088083;28;20048;-66
2021/01/12 04:16:37;;;;;;;28.77;12.97;;;0.80;99.90;;;;;;5086992;28;20126;-66
2021/01/12 04:19:04;;;;;;;28.40;13.57;;;0.90;99.90;;;;;;5087140;28;20432;-65
2021/01/12 04:21:31;;;;;;;30.43;13.70;;;0.90;99.90;;;;;;5085965;28;20052;-65
2021/01/12 04:23:58;;;;;;;26.07;11.97;;;1.00;99.90;;;;;;5087094;28;20067;-65
2021/01/12 04:26:25;;;;;;;22.73;10.50;;;1.00;99.90;;;;;;5069989;28;20114;-64
2021/01/12 04:28:51;;;;;;;30.60;12.23;;;1.00;99.90;;;;;;5065484;28;20048;-65
2021/01/12 04:31:18;;;;;;;22.13;10.40;;;1.00;99.90;;;;;;5066474;28;20056;-65
2021/01/12 04:33:44;;;;;;;23.77;11.50;;;1.10;99.90;;;;;;5066904;28;20114;-65
2021/01/12 04:36:11;;;;;;;25.70;11.83;;;1.20;99.90;;;;;;5066501;28;20048;-66
2021/01/12 04:38:37;;;;;;;23.57;11.13;;;1.20;99.90;;;;;;5066771;28;20444;-65
2021/01/12 04:41:05;;;;;;;29.07;12.60;;;1.20;99.90;;;;;;5065783;28;20416;-65
2021/01/12 04:43:31;;;;;;;26.30;11.43;;;1.20;99.90;;;;;;5066688;28;20044;-65
2021/01/12 04:45:58;;;;;;;22.80;11.23;;;1.20;99.90;;;;;;5066582;28;20059;-65
2021/01/12 04:48:26;;;;;;;26.57;11.53;;;1.30;99.90;;;;;;5066234;28;20056;-65
2021/01/12 04:51:01;;;;;;;26.40;11.17;;;1.30;99.90;;;;;;5065447;28;20052;-65
2021/01/12 04:53:37;;;;;;;23.00;10.57;;;1.40;99.90;;;;;;5066475;28;20435;-65
2021/01/12 04:56:06;;;;;;;24.92;11.70;;;1.40;99.90;;;;;;5066881;28;20131;-66
2021/01/12 04:58:40;;;;;;;24.23;10.93;;;1.40;99.90;;;;;;5065824;28;20055;-65
2021/01/12 05:01:12;;;;;;;20.57;8.23;;;1.40;99.90;;;;;;5066757;28;20098;-65
2021/01/12 05:03:43;;;;;;;23.97;9.67;;;1.30;99.90;;;;;;5084893;28;20047;-66
2021/01/12 05:06:11;;;;;;;20.70;10.07;;;1.40;99.90;;;;;;5087434;28;20047;-66
2021/01/12 05:08:41;;;;;;;22.23;10.17;;;1.50;99.90;;;;;;5085956;28;21191;-65
2021/01/12 05:11:09;;;;;;;22.33;9.60;;;1.40;99.90;;;;;;5085840;28;20104;-66
2021/01/12 05:13:38;;;;;;;21.77;9.33;;;1.40;99.90;;;;;;5086493;28;20055;-66
2021/01/12 05:16:09;;;;;;;25.53;9.00;;;1.40;99.90;;;;;;5085737;28;20056;-65
2021/01/12 05:18:39;;;;;;;22.43;10.30;;;1.30;99.90;;;;;;5085071;28;20503;-65
2021/01/12 05:21:08;;;;;;;27.80;10.20;;;1.30;99.90;;;;;;5082494;28;20052;-66
2021/01/12 05:23:51;;;;;;;19.97;10.03;;;1.30;99.90;;;;;;5066104;28;20048;-65
2021/01/12 05:26:20;;;;;;;17.20;6.60;;;1.30;99.90;;;;;;5065436;28;20052;-66
2021/01/12 05:28:47;;;;;;;24.23;10.00;;;1.30;99.90;;;;;;5064747;28;20150;-66
2021/01/12 05:31:15;;;;;;;22.63;9.83;;;1.20;99.90;;;;;;5065124;28;20045;-66
2021/01/12 05:33:43;;;;;;;23.37;10.23;;;1.20;99.90;;;;;;5064989;28;20076;-66
2021/01/12 05:36:10;;;;;;;16.60;6.93;;;1.20;99.90;;;;;;5066156;28;20489;-66
2021/01/12 05:38:37;;;;;;;23.20;8.80;;;1.10;99.90;;;;;;5065407;28;20056;-66
2021/01/12 05:41:05;;;;;;;27.60;11.77;;;1.10;99.90;;;;;;5064845;28;20059;-67
2021/01/12 05:43:35;;;;;;;28.87;11.30;;;1.10;99.90;;;;;;5057106;28;20457;-67
2021/01/12 05:46:09;;;;;;;27.90;11.93;;;1.10;99.90;;;;;;5063952;28;20505;-67
2021/01/12 05:48:38;;;;;;;25.13;11.03;;;1.10;99.90;;;;;;5063631;28;20056;-67
2021/01/12 05:51:06;;;;;;;25.43;10.70;;;1.10;99.90;;;;;;5062662;28;20059;-67
2021/01/12 05:54:04;;;;;;;26.87;11.33;;;1.10;99.90;;;;;;5064262;28;20052;-67
2021/01/12 05:56:31;;;;;;;;;;;1.00;99.90;;;;;;5081882;28;20079;-68
2021/01/12 05:59:00;;;;;;;21.55;11.02;;;1.10;99.90;;;;;;5085059;28;19927;-68
2021/01/12 06:01:46;;;;;;;21.63;10.83;;;1.10;99.90;;;;;;5084677;28;20105;-68
2021/01/12 06:04:14;;;;;;;24.93;11.60;;;1.10;99.90;;;;;;5084637;28;20056;-68
2021/01/12 06:06:41;;;;;;;27.97;12.40;;;1.10;99.90;;;;;;5085534;28;20048;-68
2021/01/12 06:09:09;;;;;;;29.33;12.70;;;1.10;99.90;;;;;;5084864;28;20040;-68
2021/01/12 06:11:37;;;;;;;28.13;12.83;;;1.10;99.90;;;;;;5085619;28;20056;-68
2021/01/12 06:14:09;;;;;;;27.30;12.03;;;1.10;99.90;;;;;;5085468;28;20056;-68
2021/01/12 06:16:37;;;;;;;28.23;12.13;;;1.10;99.90;;;;;;5085524;28;20454;-68
2021/01/12 06:19:07;;;;;;;29.30;12.60;;;1.10;99.90;;;;;;5085502;28;20055;-69
2021/01/12 06:21:35;;;;;;;26.37;12.03;;;1.10;99.90;;;;;;5084360;28;20420;-69
2021/01/12 06:24:10;;;;;;;28.20;12.67;;;1.10;99.90;;;;;;5085601;28;20136;-69
2021/01/12 06:26:39;;;;;;;25.33;12.00;;;1.20;99.90;;;;;;5066282;28;21029;-69
2021/01/12 06:29:08;;;;;;;30.20;13.00;;;1.20;99.90;;;;;;5063202;28;20049;-69
2021/01/12 06:31:46;;;;;;;31.87;13.43;;;1.20;99.90;;;;;;5063550;28;20105;-69
2021/01/12 06:34:17;;;;;;;27.03;12.23;;;1.20;99.90;;;;;;5065070;28;20095;-69
2021/01/12 06:36:51;;;;;;;30.30;13.13;;;1.20;99.90;;;;;;5065377;28;20053;-69
2021/01/12 06:39:21;;;;;;;28.63;12.33;;;1.20;99.90;;;;;;5065773;28;20125;-69
2021/01/12 06:41:49;;;;;;;27.63;12.20;;;1.30;99.90;;;;;;5064398;28;20083;-70
2021/01/12 06:44:26;;;;;;;28.03;12.53;;;1.40;99.90;;;;;;5064404;28;20059;-70
2021/01/12 06:46:54;;;;;;;31.40;12.97;;;1.20;99.90;;;;;;5064825;28;20426;-70
2021/01/12 06:49:22;;;;;;;29.80;13.83;;;1.30;99.90;;;;;;5064008;28;20049;-70
2021/01/12 06:52:00;;;;;;;25.97;12.23;;;1.20;99.90;;;;;;5064578;28;20455;-70
2021/01/12 06:54:31;;;;;;;25.53;11.43;;;1.30;99.90;;;;;;5064982;28;20076;-70
2021/01/12 06:57:00;;;;;;;27.80;12.33;;;1.30;99.90;;;;;;5064583;28;20127;-70
2021/01/12 06:59:35;;;;;;;25.37;11.07;;;1.30;99.90;;;;;;5063964;28;20056;-70
2021/01/12 07:02:06;;;;;;;27.33;12.37;;;1.30;99.90;;;;;;5064008;28;20055;-70
2021/01/12 07:04:33;;;;;;;27.43;11.97;;;1.20;99.90;;;;;;5064328;28;20048;-71
2021/01/12 07:07:01;;;;;;;28.17;12.47;;;1.30;99.90;;;;;;5064490;28;20045;-70
2021/01/12 07:09:29;;;;;;;22.37;10.87;;;1.30;99.90;;;;;;5064500;28;20489;-71
2021/01/12 07:12:07;;;;;;;22.10;10.80;;;1.40;99.90;;;;;;5063867;28;20127;-71
2021/01/12 07:14:44;;;;;;;25.17;11.10;;;1.30;99.90;;;;;;5064193;28;20082;-71
2021/01/12 07:17:11;;;;;;;25.67;10.80;;;1.40;99.90;;;;;;5064104;28;20052;-71
2021/01/12 07:19:37;;;;;;;24.67;10.90;;;1.40;99.90;;;;;;5063464;28;20075;-71
2021/01/12 07:22:25;;;;;;;25.37;11.50;;;1.40;99.90;;;;;;5064167;28;20052;-71
2021/01/12 07:24:53;;;;;;;22.67;9.90;;;1.50;99.90;;;;;;5063918;28;20126;-71
2021/01/12 07:27:21;;;;;;;24.07;10.23;;;1.50;99.90;;;;;;5063147;28;20049;-70
2021/01/12 07:29:50;;;;;;;19.90;9.27;;;1.50;99.90;;;;;;5063649;28;20065;-71
2021/01/12 07:32:39;;;;;;;16.57;7.50;;;1.50;99.90;;;;;;5073919;28;20052;-72
2021/01/12 07:35:11;;;;;;;15.33;6.80;;;1.60;99.90;;;;;;5072005;28;20047;-70
2021/01/12 07:37:39;;;;;;;13.83;6.07;;;1.50;99.90;;;;;;5073450;28;20063;-70
2021/01/12 07:40:08;;;;;;;12.17;5.37;;;1.60;99.90;;;;;;5082575;28;20048;-70
2021/01/12 07:42:35;;;;;;;11.23;4.97;;;1.50;99.90;;;;;;5079045;28;20441;-70
2021/01/12 07:45:04;;;;;;;9.50;3.80;;;1.60;99.90;;;;;;5073008;28;20048;-71
2021/01/12 07:47:31;;;;;;;9.70;4.03;;;1.60;99.90;;;;;;5071775;28;20520;-71
2021/01/12 07:49:58;;;;;;;9.17;3.90;;;1.60;99.90;;;;;;5083760;28;20040;-72
2021/01/12 07:52:25;;;;;;;8.00;3.60;;;1.60;99.90;;;;;;5082245;28;20040;-68
2021/01/12 07:54:51;;;;;;;9.50;3.57;;;1.60;99.90;;;;;;5071260;28;20059;-67
2021/01/12 07:57:21;;;;;;;8.97;3.90;;;1.60;99.90;;;;;;5071690;28;20053;-69
2021/01/12 07:59:48;;;;;;;9.70;4.23;;;1.60;99.90;;;;;;5083623;28;20062;-70
2021/01/12 08:02:18;;;;;;;10.73;4.47;;;1.60;99.90;;;;;;5072942;28;20052;-70
2021/01/12 08:04:45;;;;;;;11.23;4.53;;;1.60;99.90;;;;;;5082767;28;20060;-69
2021/01/12 08:07:21;;;;;;;8.87;3.67;;;1.60;99.90;;;;;;5079654;28;20044;-70
2021/01/12 08:09:53;;;;;;;8.07;3.45;;;1.70;99.90;;;;;;5073832;28;20128;-70
2021/01/12 08:12:21;;;;;;;6.57;2.97;;;1.80;99.90;;;;;;5087398;28;20135;-70
2021/01/12 08:14:51;;;;;;;7.70;3.03;;;1.80;99.90;;;;;;5079432;28;20400;-72
2021/01/12 08:17:21;;;;;;;6.70;2.90;;;1.80;99.90;;;;;;5080536;28;20063;-72
2021/01/12 08:19:48;;;;;;;9.37;4.33;;;1.80;99.90;;;;;;5069575;28;20063;-72
2021/01/12 08:22:17;;;;;;;7.07;2.90;;;1.70;99.90;;;;;;5087795;28;20056;-72
2021/01/12 08:24:45;;;;;;;5.47;2.13;;;1.70;99.90;;;;;;5081341;28;20604;-72
2021/01/12 08:27:12;;;;;;;6.43;2.80;;;1.80;99.90;;;;;;5078618;28;20082;-71
2021/01/12 08:29:39;;;;;;;5.77;2.37;;;1.80;99.90;;;;;;5083135;28;20048;-72
2021/01/12 08:32:07;;;;;;;8.57;2.47;;;1.80;99.90;;;;;;5070466;28;20063;-72
2021/01/12 08:34:45;;;;;;;7.23;3.03;;;1.80;99.90;;;;;;5082657;28;20060;-72
2021/01/12 08:37:13;;;;;;;7.73;3.00;;;1.80;99.90;;;;;;5074132;28;20053;-72
2021/01/12 08:39:41;;;;;;;6.80;2.50;;;1.80;99.90;;;;;;5067021;28;20049;-72
2021/01/12 08:42:10;;;;;;;5.07;2.07;;;1.80;99.90;;;;;;5067920;28;20047;-71
2021/01/12 08:44:41;;;;;;;6.37;2.60;;;1.80;99.90;;;;;;5080903;28;20048;-71
2021/01/12 08:47:08;;;;;;;6.67;2.50;;;1.80;99.90;;;;;;5067592;28;20078;-72
2021/01/12 08:49:36;;;;;;;4.83;2.10;;;1.80;99.90;;;;;;5065666;28;20048;-67
2021/01/12 08:52:06;;;;;;;5.63;1.83;;;1.90;99.90;;;;;;5077443;28;20097;-68
2021/01/12 08:54:33;;;;;;;4.33;2.13;;;1.90;99.90;;;;;;5070427;28;20047;-67
2021/01/12 08:57:00;;;;;;;8.30;2.00;;;1.90;99.90;;;;;;5068997;28;20501;-67
2021/01/12 08:59:29;;;;;;;3.47;1.77;;;1.90;99.90;;;;;;5078740;28;20051;-67
2021/01/12 09:01:57;;;;;;;6.33;2.23;;;1.90;99.90;;;;;;5068960;28;20132;-68
2021/01/12 09:04:27;;;;;;;4.90;1.97;;;1.80;99.90;;;;;;5071298;28;20206;-70
2021/01/12 09:07:02;;;;;;;5.90;2.50;;;1.90;99.90;;;;;;5077332;28;20073;-70
2021/01/12 09:09:30;;;;;;;5.57;2.40;;;1.90;99.90;;;;;;5079610;28;20048;-70
2021/01/12 09:11:59;;;;;;;6.67;2.57;;;1.90;99.90;;;;;;5068595;28;20055;-72
2021/01/12 09:14:30;;;;;;;7.50;3.40;;;2.00;99.90;;;;;;5066827;28;20044;-76
2021/01/12 09:16:59;;;;;;;5.73;2.70;;;1.90;99.90;;;;;;5074685;28;20037;-75
2021/01/12 09:19:34;;;;;;;7.30;3.20;;;2.00;99.90;;;;;;5079031;28;20415;-72
2021/01/12 09:22:08;;;;;;;4.80;2.10;;;2.00;99.90;;;;;;5067310;28;20101;-71
2021/01/12 09:24:39;;;;;;;6.37;2.67;;;2.00;99.90;;;;;;5066073;28;20739;-70
2021/01/12 09:27:06;;;;;;;7.87;2.93;;;2.00;99.90;;;;;;5066167;28;20136;-71
2021/01/12 09:29:39;;;;;;;6.03;2.67;;;2.00;99.90;;;;;;5065241;28;20131;-71
2021/01/12 09:32:06;;;;;;;3.73;1.53;;;2.10;99.90;;;;;;5065820;28;20044;-71
2021/01/12 09:34:33;;;;;;;5.37;1.90;;;2.10;99.90;;;;;;5066720;28;20048;-74
2021/01/12 09:37:00;;;;;;;5.07;1.90;;;2.10;99.90;;;;;;5065953;28;20108;-74
2021/01/12 09:39:27;;;;;;;4.73;1.90;;;2.10;99.90;;;;;;5065909;28;20197;-73
2021/01/12 09:41:55;;;;;;;4.57;1.73;;;2.10;99.90;;;;;;5060881;28;20675;-73
2021/01/12 09:44:21;;;;;;;6.60;1.70;;;2.00;99.90;;;;;;5082965;28;20412;-73
2021/01/12 09:46:48;;;;;;;2.90;1.30;;;2.00;99.90;;;;;;5085128;28;20512;-73
2021/01/12 09:49:14;;;;;;;1.90;1.10;;;2.00;99.90;;;;;;5083007;28;20052;-74
2021/01/12 09:51:42;;;;;;;4.03;1.60;;;2.00;99.90;;;;;;5080615;28;20048;-74
2021/01/12 09:54:09;;;;;;;3.53;1.63;;;2.00;99.90;;;;;;5082943;28;20413;-73
2021/01/12 09:56:36;;;;;;;3.13;1.23;;;2.00;99.90;;;;;;5069670;28;20059;-72
2021/01/12 09:59:04;;;;;;;2.37;1.13;;;2.00;99.90;;;;;;5078409;28;20040;-72
2021/01/12 10:01:30;;;;;;;2.80;1.10;;;2.00;99.90;;;;;;5064138;28;20044;-73
2021/01/12 10:03:57;;;;;;;2.63;1.20;;;2.00;99.90;;;;;;5079406;28;20048;-73
2021/01/12 10:06:27;;;;;;;2.07;1.00;;;2.00;99.90;;;;;;5077701;28;20052;-73
2021/01/12 10:08:54;;;;;;;2.17;0.93;;;2.00;99.90;;;;;;5080935;28;20044;-73
2021/01/12 10:11:23;;;;;;;1.80;1.00;;;2.00;99.90;;;;;;5081225;28;20052;-74
2021/01/12 10:13:49;;;;;;;2.80;1.00;;;2.00;99.90;;;;;;5072793;28;20050;-73
2021/01/12 10:16:22;;;;;;;2.50;1.03;;;2.00;99.90;;;;;;5070009;28;20060;-73
2021/01/12 10:18:48;;;;;;;2.40;1.07;;;1.90;99.90;;;;;;5068461;28;20052;-73
2021/01/12 10:21:18;;;;;;;2.43;1.10;;;1.90;99.90;;;;;;5069408;28;20052;-74
2021/01/12 10:23:45;;;;;;;4.73;1.20;;;2.00;99.90;;;;;;5071101;28;20060;-73
2021/01/12 10:26:15;;;;;;;2.00;1.00;;;1.90;99.90;;;;;;5068494;28;20052;-73
2021/01/12 10:28:47;;;;;;;1.93;0.90;;;2.00;99.90;;;;;;5075277;28;20041;-74
2021/01/12 10:31:16;;;;;;;2.27;0.80;;;2.00;99.90;;;;;;5073474;28;20052;-73
2021/01/12 10:33:44;;;;;;;1.20;0.70;;;2.00;99.90;;;;;;5075645;28;20044;-73
2021/01/12 10:36:13;;;;;;;2.17;0.80;;;2.00;99.90;;;;;;5080986;28;20511;-73
2021/01/12 10:38:39;;;;;;;0.87;0.57;;;2.00;99.90;;;;;;5081931;28;20041;-72
2021/01/12 10:41:06;;;;;;;3.23;0.80;;;1.90;99.90;;;;;;5073445;28;20040;-73
2021/01/12 10:43:33;;;;;;;1.70;0.80;;;1.90;99.90;;;;;;5076327;28;20052;-72
2021/01/12 10:46:00;;;;;;;1.07;0.60;;;1.90;99.90;;;;;;5082058;28;20523;-73
2021/01/12 10:48:27;;;;;;;1.67;0.70;;;1.90;99.90;;;;;;5082079;28;20127;-72
2021/01/12 10:50:55;;;;;;;2.43;0.93;;;2.00;99.90;;;;;;5085794;28;20509;-73
2021/01/12 10:53:21;;;;;;;2.63;1.03;;;2.10;99.90;;;;;;5088607;28;20054;-73
2021/01/12 10:55:49;;;;;;;4.00;1.30;;;2.10;99.90;;;;;;5080906;28;20051;-73
2021/01/12 10:58:16;;;;;;;2.17;0.80;;;2.10;99.90;;;;;;5068949;28;20056;-72
2021/01/12 11:00:44;;;;;;;4.47;0.50;;;2.10;99.90;;;;;;5076136;28;20174;-72
2021/01/12 11:03:11;;;;;;;1.30;0.73;;;2.10;99.90;;;;;;5071814;28;20479;-72
2021/01/12 11:05:37;;;;;;;2.10;0.80;;;2.10;99.90;;;;;;5078348;28;20048;-72
2021/01/12 11:08:09;;;;;;;0.87;0.60;;;2.10;99.90;;;;;;5078425;28;20052;-71
2021/01/12 11:10:36;;;;;;;0.90;0.53;;;2.10;99.90;;;;;;5079019;28;20056;-72
2021/01/12 11:13:04;;;;;;;1.83;0.77;;;2.10;99.90;;;;;;5075820;28;20260;-71
2021/01/12 11:15:31;;;;;;;1.57;0.60;;;2.10;99.90;;;;;;5076711;28;20541;-71
2021/01/12 11:17:58;;;;;;;1.20;0.70;;;2.20;99.90;;;;;;5077091;28;20389;-71
2021/01/12 11:20:25;;;;;;;1.23;0.57;;;2.30;99.90;;;;;;5079064;28;20048;-71
2021/01/12 11:22:51;;;;;;;1.40;0.60;;;2.30;99.90;;;;;;5093293;28;20048;-74
2021/01/12 11:25:22;;;;;;;2.23;1.00;;;2.30;99.90;;;;;;5084327;28;20044;-74
2021/01/12 11:27:48;;;;;;;1.37;0.90;;;2.30;99.90;;;;;;5069181;28;20194;-74
2021/01/12 11:30:16;;;;;;;1.23;0.70;;;2.30;99.90;;;;;;5064988;28;20122;-74
2021/01/12 11:32:44;;;;;;;0.83;0.40;;;2.30;99.90;;;;;;5069650;28;20060;-74
2021/01/12 11:35:12;;;;;;;1.90;0.50;;;2.20;99.90;;;;;;5076034;28;20044;-74
2021/01/12 11:37:38;;;;;;;1.00;0.50;;;2.20;99.90;;;;;;5079762;28;20058;-74
2021/01/12 11:40:08;;;;;;;0.70;0.43;;;2.20;99.90;;;;;;5077813;28;20094;-74
2021/01/12 11:42:35;;;;;;;1.07;0.60;;;2.30;99.90;;;;;;5076120;28;20055;-74
2021/01/12 11:45:03;;;;;;;1.50;0.67;;;2.30;99.90;;;;;;5073885;28;20389;-74
2021/01/12 11:47:30;;;;;;;0.93;0.57;;;2.40;99.90;;;;;;5074467;28;20041;-75
2021/01/12 11:49:57;;;;;;;2.37;0.80;;;2.30;99.90;;;;;;5068730;28;20048;-74
2021/01/12 11:52:23;;;;;;;1.07;0.50;;;2.30;99.90;;;;;;5069334;28;20044;-74
2021/01/12 11:54:50;;;;;;;0.87;0.50;;;2.30;99.90;;;;;;5067910;28;20040;-74
2021/01/12 11:57:16;;;;;;;0.70;0.40;;;2.30;99.90;;;;;;5077505;28;20052;-74
2021/01/12 11:59:44;;;;;;;1.30;0.53;;;2.30;99.90;;;;;;5081866;28;20420;-74
2021/01/12 12:02:10;;;;;;;1.40;0.60;;;2.30;99.90;;;;;;5090097;28;20048;-75
2021/01/12 12:04:37;;;;;;;0.90;0.60;;;2.30;99.90;;;;;;5089165;28;20098;-75
2021/01/12 12:07:04;;;;;;;0.87;0.60;;;2.30;99.90;;;;;;5091949;28;20044;-75
2021/01/12 12:09:32;;;;;;;1.30;0.50;;;2.20;99.90;;;;;;5069038;28;20072;-78
2021/01/12 12:11:59;;;;;;;0.80;0.50;;;2.20;99.90;;;;;;5079193;28;20045;-75
2021/01/12 12:14:29;;;;;;;1.30;0.60;;;2.20;99.90;;;;;;5079855;28;20048;-72
2021/01/12 12:16:57;;;;;;;1.33;0.50;;;2.20;99.90;;;;;;5087802;28;20048;-70
2021/01/12 12:19:25;;;;;;;0.83;0.50;;;2.20;99.90;;;;;;5082041;28;20044;-77
2021/01/12 12:21:54;;;;;;;1.83;0.70;;;2.20;99.90;;;;;;5078918;28;20147;-78
2021/01/12 12:24:22;;;;;;;0.87;0.63;;;2.20;99.90;;;;;;5071252;28;20108;-77
2021/01/12 12:26:51;;;;;;;1.37;0.70;;;2.30;99.90;;;;;;5068468;28;20377;-75
2021/01/12 12:29:18;;;;;;;3.50;0.93;;;2.30;99.90;;;;;;5072909;28;20523;-74
2021/01/12 12:31:45;;;;;;;0.97;0.50;;;2.30;99.90;;;;;;5072218;28;20039;-74
2021/01/12 12:34:13;;;;;;;0.97;0.73;;;2.20;99.90;;;;;;5075154;28;20139;-76
2021/01/12 12:36:40;;;;;;;1.23;0.80;;;2.20;99.90;;;;;;5071136;28;20044;-76
2021/01/12 12:39:07;;;;;;;1.53;0.80;;;2.20;99.90;;;;;;5068259;28;20323;-76
2021/01/12 12:41:36;;;;;;;2.90;0.80;;;2.20;99.90;;;;;;5069753;28;20060;-79
2021/01/12 12:44:04;;;;;;;1.73;0.93;;;2.30;99.90;;;;;;5070248;28;20040;-74
2021/01/12 12:46:31;;;;;;;1.40;0.70;;;2.20;99.90;;;;;;5072915;28;20044;-80
2021/01/12 12:48:58;;;;;;;1.93;0.90;;;2.30;99.90;;;;;;5076915;28;20048;-77